createdAt,value
2022-08-19T00:00:14.904Z,19.00
2022-08-19T00:03:07.852Z,19.00
2022-08-19T00:06:00.597Z,19.10
2022-08-19T00:08:52.573Z,19.00
2022-08-19T00:11:44.926Z,19.00
2022-08-19T00:14:41.960Z,19.00
2022-08-19T00:17:37.403Z,19.00
2022-08-19T00:23:08.333Z,19.10
2022-08-19T00:26:06.193Z,19.10
2022-08-19T00:29:13.405Z,19.10
2022-08-19T00:32:05.223Z,19.10
2022-08-19T00:37:36.041Z,19.00
2022-08-19T00:43:14.368Z,19.20
2022-08-19T00:46:11.972Z,19.20
2022-08-19T00:49:05.036Z,19.10
2022-08-19T00:51:59.785Z,19.10
2022-08-19T00:57:35.939Z,19.00
2022-08-19T01:03:05.656Z,18.90
2022-08-19T01:05:57.977Z,18.80
2022-08-19T01:08:50.003Z,18.80
2022-08-19T01:11:45.072Z,18.80
2022-08-19T01:14:36.878Z,18.80
2022-08-19T01:17:28.241Z,18.80
2022-08-19T01:20:23.062Z,18.80
2022-08-19T01:23:16.453Z,18.80
2022-08-19T01:26:08.166Z,18.80
2022-08-19T01:29:02.087Z,18.90
2022-08-19T01:31:54.845Z,18.90
2022-08-19T01:34:47.537Z,18.90
2022-08-19T01:37:49.488Z,18.90
2022-08-19T01:40:43.397Z,19.00
2022-08-19T01:43:35.580Z,19.10
2022-08-19T01:46:27.000Z,19.10
2022-08-19T01:49:19.856Z,19.10
2022-08-19T01:52:11.213Z,19.00
2022-08-19T01:55:03.367Z,19.10
2022-08-19T01:57:58.056Z,19.10
2022-08-19T02:03:27.269Z,19.20
2022-08-19T02:06:18.671Z,19.30
2022-08-19T02:11:55.160Z,19.20
2022-08-19T02:15:00.775Z,19.40
2022-08-19T02:17:52.250Z,19.30
2022-08-19T02:20:45.110Z,19.20
2022-08-19T02:23:37.778Z,19.20
2022-08-19T02:26:29.696Z,19.20
2022-08-19T02:29:21.115Z,19.20
2022-08-19T02:32:12.601Z,19.20
2022-08-19T02:35:04.514Z,19.20
2022-08-19T02:38:14.792Z,19.20
2022-08-19T02:41:14.969Z,19.10
2022-08-19T02:44:26.607Z,19.00
2022-08-19T02:49:39.657Z,19.10
2022-08-19T02:52:31.199Z,19.10
2022-08-19T02:58:01.713Z,19.10
2022-08-19T03:03:41.275Z,19.10
2022-08-19T03:06:32.749Z,19.00
2022-08-19T03:09:23.821Z,18.70
2022-08-19T03:12:15.671Z,18.50
2022-08-19T03:17:48.689Z,18.40
2022-08-19T03:20:44.621Z,18.40
2022-08-19T03:23:37.062Z,18.50
2022-08-19T03:26:28.213Z,18.60
2022-08-19T03:29:29.450Z,18.70
2022-08-19T03:32:19.845Z,18.80
2022-08-19T03:37:47.623Z,18.80
2022-08-19T03:40:40.595Z,18.70
2022-08-19T03:43:31.592Z,18.60
2022-08-19T03:46:25.392Z,18.70
2022-08-19T03:49:18.434Z,18.90
2022-08-19T03:54:49.951Z,18.80
2022-08-19T03:57:41.224Z,18.80
2022-08-19T04:00:40.652Z,18.80
2022-08-19T04:03:31.477Z,18.70
2022-08-19T04:06:24.330Z,18.70
2022-08-19T04:09:15.474Z,18.80
2022-08-19T04:12:09.320Z,18.70
2022-08-19T04:15:00.583Z,19.00
2022-08-19T04:17:51.826Z,19.00
2022-08-19T04:20:45.525Z,19.00
2022-08-19T04:23:37.815Z,19.00
2022-08-19T04:26:40.143Z,18.90
2022-08-19T04:29:31.566Z,18.80
2022-08-19T04:32:23.750Z,18.70
2022-08-19T04:35:17.557Z,18.80
2022-08-19T04:38:08.273Z,18.90
2022-08-19T04:41:17.325Z,19.00
2022-08-19T04:44:08.745Z,19.00
2022-08-19T04:47:00.021Z,19.00
2022-08-19T04:49:52.830Z,18.90
2022-08-19T04:52:44.049Z,18.90
2022-08-19T04:55:38.315Z,18.90
2022-08-19T04:58:30.103Z,18.90
2022-08-19T05:01:23.465Z,18.90
2022-08-19T05:04:14.875Z,19.00
2022-08-19T05:07:06.238Z,19.10
2022-08-19T05:09:59.185Z,19.10
2022-08-19T05:15:37.266Z,19.10
2022-08-19T05:21:31.198Z,19.00
2022-08-19T05:24:23.732Z,18.90
2022-08-19T05:27:16.909Z,18.90
2022-08-19T05:33:05.497Z,18.90
2022-08-19T05:38:37.601Z,18.80
2022-08-19T05:41:30.471Z,18.80
2022-08-19T05:44:22.992Z,18.90
2022-08-19T05:47:15.883Z,18.90
2022-08-19T05:50:08.451Z,18.90
2022-08-19T05:52:59.911Z,18.90
2022-08-19T05:55:51.942Z,19.00
2022-08-19T05:58:43.378Z,19.00
2022-08-19T06:04:20.469Z,19.00
2022-08-19T06:07:13.095Z,19.10
2022-08-19T06:12:48.406Z,19.00
2022-08-19T06:15:39.921Z,19.00
2022-08-19T06:18:38.718Z,19.10
2022-08-19T06:21:31.436Z,19.10
2022-08-19T06:24:26.300Z,19.00
2022-08-19T06:29:56.528Z,19.00
2022-08-19T06:35:28.078Z,19.10
2022-08-19T06:38:21.424Z,19.10
2022-08-19T06:43:54.193Z,19.10
2022-08-19T06:46:46.300Z,19.20
2022-08-19T06:49:40.436Z,19.30
2022-08-19T06:52:31.589Z,19.30
2022-08-19T06:55:24.421Z,19.40
2022-08-19T07:00:56.433Z,19.50
2022-08-19T07:03:48.652Z,19.50
2022-08-19T07:06:44.344Z,19.50
2022-08-19T07:09:38.441Z,19.60
2022-08-19T07:12:32.682Z,19.80
2022-08-19T07:18:03.143Z,20.00
2022-08-19T07:21:10.151Z,20.10
2022-08-19T07:24:05.414Z,20.20
2022-08-19T07:27:00.334Z,20.20
2022-08-19T07:29:57.438Z,20.20
2022-08-19T07:32:44.397Z,20.20
2022-08-19T07:35:35.725Z,20.20
2022-08-19T07:41:05.969Z,20.20
2022-08-19T07:43:57.329Z,20.20
2022-08-19T07:46:53.228Z,20.30
2022-08-19T07:50:09.343Z,20.40
2022-08-19T07:53:07.300Z,20.60
2022-08-19T07:56:01.584Z,20.60
2022-08-19T07:58:53.928Z,20.50
2022-08-19T08:01:44.736Z,20.60
2022-08-19T08:05:01.166Z,20.70
2022-08-19T08:08:10.584Z,20.80
2022-08-19T08:11:07.609Z,20.80
2022-08-19T08:14:01.148Z,21.00
2022-08-19T08:16:50.879Z,21.00
2022-08-19T08:19:43.185Z,21.10
2022-08-19T08:22:53.156Z,21.20
2022-08-19T08:25:45.548Z,21.40
2022-08-19T08:28:49.591Z,21.50
2022-08-19T08:31:42.596Z,21.50
2022-08-19T08:34:33.594Z,21.60
2022-08-19T08:37:25.073Z,21.40
2022-08-19T08:48:42.283Z,21.20
2022-08-19T08:51:36.545Z,21.10
2022-08-19T08:54:34.785Z,21.00
2022-08-19T09:00:25.181Z,21.30
2022-08-19T09:03:21.195Z,21.20
2022-08-19T09:06:23.543Z,21.20
2022-08-19T09:09:20.268Z,21.20
2022-08-19T09:12:14.953Z,21.20
2022-08-19T09:17:45.970Z,21.10
2022-08-19T09:20:51.325Z,21.00
2022-08-19T09:23:51.173Z,21.00
2022-08-19T09:26:52.378Z,21.00
2022-08-19T09:29:38.065Z,21.00
2022-08-19T09:32:31.597Z,20.90
2022-08-19T09:35:24.304Z,20.90
2022-08-19T09:38:16.157Z,20.90
2022-08-19T09:43:56.231Z,20.90
2022-08-19T09:46:48.332Z,20.80
2022-08-19T09:49:40.469Z,20.90
2022-08-19T09:52:32.734Z,20.90
2022-08-19T09:58:07.472Z,21.10
2022-08-19T10:01:08.576Z,21.10
2022-08-19T10:04:22.171Z,21.10
2022-08-19T10:07:14.650Z,21.10
2022-08-19T10:12:54.685Z,21.20
2022-08-19T10:15:48.080Z,21.20
2022-08-19T10:18:39.432Z,21.20
2022-08-19T10:24:21.045Z,21.10
2022-08-19T10:27:17.250Z,21.10
2022-08-19T10:32:54.350Z,21.10
2022-08-19T10:35:56.888Z,21.10
2022-08-19T10:38:52.372Z,21.10
2022-08-19T10:41:47.700Z,21.30
2022-08-19T10:44:38.591Z,21.30
2022-08-19T10:47:42.280Z,21.40
2022-08-19T10:50:52.481Z,21.30
2022-08-19T10:53:44.665Z,21.10
2022-08-19T10:56:56.630Z,21.00
2022-08-19T10:59:59.308Z,20.90
2022-08-19T11:02:59.482Z,20.80
2022-08-19T11:06:05.111Z,20.70
2022-08-19T11:09:01.648Z,20.70
2022-08-19T11:11:55.351Z,20.90
2022-08-19T11:14:46.542Z,20.90
2022-08-19T11:17:39.854Z,20.80
2022-08-19T11:23:16.484Z,20.90
2022-08-19T11:26:08.167Z,20.90
2022-08-19T11:29:15.997Z,20.90
2022-08-19T11:32:02.645Z,20.90
2022-08-19T11:37:59.090Z,21.20
2022-08-19T11:40:57.521Z,21.40
2022-08-19T11:43:49.372Z,21.50
2022-08-19T11:49:28.654Z,22.00
2022-08-19T11:54:59.341Z,22.00
2022-08-19T11:57:51.408Z,22.10
2022-08-19T12:03:22.659Z,22.20
2022-08-19T12:08:56.324Z,22.30
2022-08-19T12:11:47.856Z,22.50
2022-08-19T12:14:40.388Z,22.60
2022-08-19T12:17:35.179Z,22.60
2022-08-19T12:23:08.622Z,22.70
2022-08-19T12:28:42.490Z,22.90
2022-08-19T12:34:15.197Z,22.60
2022-08-19T12:37:08.984Z,22.50
2022-08-19T12:40:01.078Z,22.40
2022-08-19T12:42:52.525Z,22.20
2022-08-19T12:45:44.764Z,22.00
2022-08-19T12:48:38.348Z,21.80
2022-08-19T12:51:32.760Z,21.50
2022-08-19T12:54:23.681Z,21.40
2022-08-19T12:57:16.443Z,21.30
2022-08-19T13:02:50.798Z,21.10
2022-08-19T13:08:22.930Z,21.30
2022-08-19T13:13:57.042Z,20.70
2022-08-19T13:16:48.445Z,20.40
2022-08-19T13:19:41.200Z,20.00
2022-08-19T13:22:33.161Z,19.90
2022-08-19T13:25:24.820Z,19.90
2022-08-19T13:28:16.508Z,19.90
2022-08-19T13:33:46.410Z,19.90
2022-08-19T13:36:38.697Z,20.00
2022-08-19T13:39:30.260Z,20.10
2022-08-19T13:42:21.931Z,20.20
2022-08-19T13:45:13.992Z,20.20
2022-08-19T13:48:09.611Z,20.30
2022-08-19T13:51:01.027Z,20.20
2022-08-19T13:56:38.391Z,20.20
2022-08-19T13:59:37.360Z,20.10
2022-08-19T14:02:29.250Z,20.10
2022-08-19T14:05:24.314Z,20.20
2022-08-19T14:08:15.849Z,20.20
2022-08-19T14:13:45.460Z,20.40
2022-08-19T14:16:36.812Z,20.50
2022-08-19T14:19:36.217Z,20.50
2022-08-19T14:22:29.468Z,20.60
2022-08-19T14:25:25.381Z,20.70
2022-08-19T14:28:18.904Z,20.60
2022-08-19T14:31:10.403Z,20.70
2022-08-19T14:34:02.107Z,20.90
2022-08-19T14:36:53.678Z,21.00
2022-08-19T14:39:45.714Z,21.00
2022-08-19T14:42:41.446Z,20.90
2022-08-19T14:48:18.956Z,21.10
2022-08-19T14:53:54.204Z,21.20
2022-08-19T14:56:45.691Z,21.20
2022-08-19T15:02:33.499Z,21.20
2022-08-19T15:07:53.392Z,21.20
2022-08-19T15:26:37.387Z,21.10
2022-08-19T15:29:29.881Z,21.20
2022-08-19T15:32:24.919Z,21.30
2022-08-19T15:35:16.246Z,21.50
2022-08-19T15:38:09.337Z,21.60
2022-08-19T15:41:03.043Z,21.60
2022-08-19T15:43:59.047Z,21.50
2022-08-19T15:46:58.804Z,21.60
2022-08-19T15:49:50.284Z,21.70
2022-08-19T15:52:57.620Z,21.90
2022-08-19T15:55:49.530Z,22.20
2022-08-19T15:59:08.057Z,22.60
2022-08-19T16:02:17.448Z,23.00
2022-08-19T16:05:30.695Z,24.20
2022-08-19T16:08:22.444Z,24.80
2022-08-19T16:13:58.085Z,26.80
2022-08-19T16:16:50.920Z,26.60
2022-08-19T16:19:42.492Z,26.50
2022-08-19T16:22:35.496Z,28.40
2022-08-19T16:25:36.642Z,29.60
2022-08-19T16:31:10.023Z,28.80
2022-08-19T16:34:01.737Z,28.60
2022-08-19T16:36:54.385Z,28.70
2022-08-19T16:39:46.086Z,28.80
2022-08-19T16:42:39.109Z,27.80
2022-08-19T16:45:44.023Z,27.70
2022-08-19T16:48:36.612Z,27.80
2022-08-19T16:51:50.948Z,27.80
2022-08-19T16:54:53.338Z,27.30
2022-08-19T16:57:48.775Z,26.20
2022-08-19T17:00:54.760Z,25.50
2022-08-19T17:03:50.346Z,26.00
2022-08-19T17:06:42.177Z,26.20
2022-08-19T17:09:33.921Z,26.20
2022-08-19T17:12:31.675Z,25.90
2022-08-19T17:18:04.148Z,25.10
2022-08-19T17:20:57.094Z,24.80
2022-08-19T17:23:48.946Z,24.90
2022-08-19T17:43:32.463Z,23.90
2022-08-19T17:49:02.879Z,23.60
2022-08-19T17:51:54.315Z,23.40
2022-08-19T17:54:46.301Z,23.20
2022-08-19T17:57:41.174Z,23.00
2022-08-19T18:03:10.679Z,22.80
2022-08-19T18:06:08.213Z,22.80
2022-08-19T18:09:00.396Z,22.80
2022-08-19T18:11:53.069Z,22.80
2022-08-19T18:14:45.336Z,22.80
2022-08-19T18:17:37.465Z,22.70
2022-08-19T18:20:28.580Z,22.70
2022-08-19T18:23:43.852Z,22.70
2022-08-19T18:26:12.819Z,22.70
2022-08-19T18:29:04.401Z,22.60
2022-08-19T18:31:56.722Z,22.70
2022-08-19T18:34:48.635Z,22.80
2022-08-19T18:37:40.764Z,22.70
2022-08-19T18:40:50.180Z,22.80
2022-08-19T18:43:59.266Z,22.70
2022-08-19T18:47:08.459Z,22.60
2022-08-19T18:52:41.401Z,22.60
2022-08-19T18:55:32.794Z,22.60
2022-08-19T18:58:26.325Z,22.50
2022-08-19T19:04:08.383Z,22.40
2022-08-19T19:07:09.200Z,22.30
2022-08-19T19:10:09.919Z,22.10
2022-08-19T19:13:01.520Z,22.10
2022-08-19T19:15:54.602Z,22.00
2022-08-19T19:18:49.500Z,22.00
2022-08-19T19:21:44.702Z,21.90
2022-08-19T19:27:21.642Z,21.70
2022-08-19T19:30:13.951Z,21.70
2022-08-19T19:33:05.051Z,21.60
2022-08-19T19:35:56.309Z,21.50
2022-08-19T19:38:48.860Z,21.40
2022-08-19T19:41:41.531Z,21.20
2022-08-19T19:44:37.560Z,21.10
2022-08-19T19:47:30.355Z,21.10
2022-08-19T19:50:23.149Z,21.00
2022-08-19T19:53:15.185Z,20.90
2022-08-19T19:56:10.057Z,21.00
2022-08-19T19:59:03.356Z,21.00
2022-08-19T20:04:36.421Z,20.90
2022-08-19T20:07:49.138Z,20.80
2022-08-19T20:10:41.149Z,20.80
2022-08-19T20:13:40.540Z,20.80
2022-08-19T20:16:35.425Z,20.80
2022-08-19T20:19:28.664Z,20.80
2022-08-19T20:24:58.725Z,20.70
2022-08-19T20:27:49.735Z,20.80
2022-08-19T20:30:46.415Z,20.90
2022-08-19T20:33:34.413Z,20.70
2022-08-19T20:36:30.360Z,20.70
2022-08-19T20:39:22.512Z,20.80
2022-08-19T20:42:14.677Z,20.80
2022-08-19T20:45:07.943Z,20.80
2022-08-19T20:48:20.212Z,20.80
2022-08-19T20:53:51.069Z,20.70
2022-08-19T20:56:42.695Z,20.70
2022-08-19T20:59:35.885Z,20.70
2022-08-19T21:02:29.638Z,20.70
2022-08-19T21:05:30.728Z,20.80
2022-08-19T21:08:22.968Z,20.80
2022-08-19T21:11:14.472Z,20.90
2022-08-19T21:14:12.080Z,20.80
2022-08-19T21:17:04.744Z,20.70
2022-08-19T21:19:56.477Z,20.60
2022-08-19T21:22:56.137Z,20.50
2022-08-19T21:26:00.342Z,20.40
2022-08-19T21:28:52.580Z,20.50
2022-08-19T21:34:29.909Z,20.60
2022-08-19T21:40:00.757Z,20.70
2022-08-19T21:42:52.429Z,20.70
2022-08-19T21:48:21.976Z,20.60
2022-08-19T21:53:53.091Z,20.50
2022-08-19T21:56:44.637Z,20.50
2022-08-19T21:59:36.082Z,20.50
2022-08-19T22:02:28.501Z,20.50
2022-08-19T22:05:23.180Z,20.60
2022-08-19T22:11:00.915Z,20.60
2022-08-19T22:13:53.905Z,20.60
2022-08-19T22:16:46.743Z,20.70
2022-08-19T22:19:38.098Z,20.60
2022-08-19T22:22:32.671Z,20.60
2022-08-19T22:30:48.864Z,20.50
2022-08-19T22:33:41.871Z,20.50
2022-08-19T22:36:33.730Z,20.40
2022-08-19T22:39:25.134Z,20.40
2022-08-19T22:45:00.701Z,20.40
2022-08-19T22:47:51.671Z,20.40
2022-08-19T22:53:24.380Z,20.30
2022-08-19T22:58:56.875Z,20.30
2022-08-19T23:01:48.963Z,20.30
2022-08-19T23:04:40.797Z,20.30
2022-08-19T23:07:33.586Z,20.30
2022-08-19T23:10:27.310Z,20.30
2022-08-19T23:16:05.567Z,20.30
2022-08-19T23:18:58.596Z,20.30
2022-08-19T23:21:50.535Z,20.30
2022-08-19T23:24:42.236Z,20.30
2022-08-19T23:30:29.059Z,20.20
2022-08-19T23:33:25.861Z,20.20
2022-08-19T23:38:57.545Z,20.20
2022-08-19T23:41:48.853Z,20.30
2022-08-19T23:44:52.157Z,20.20
2022-08-19T23:47:34.804Z,20.30
2022-08-19T23:50:27.500Z,20.30
2022-08-19T23:53:19.126Z,20.30
2022-08-19T23:58:49.974Z,20.30
